createdAt,value
2019-03-03T00:00:30.256Z,5.09
2019-03-03T00:02:58.937Z,5.05
2019-03-03T00:05:27.606Z,5.05
2019-03-03T00:07:56.274Z,5.06
2019-03-03T00:10:24.955Z,5.08
2019-03-03T00:12:53.630Z,5.01
2019-03-03T00:15:22.309Z,5.00
2019-03-03T00:17:50.988Z,4.98
2019-03-03T00:20:19.659Z,4.95
2019-03-03T00:22:48.327Z,4.89
2019-03-03T00:25:17.390Z,4.95
2019-03-03T00:27:46.062Z,4.97
2019-03-03T00:30:17.243Z,4.97
2019-03-03T00:32:46.001Z,4.86
2019-03-03T00:35:15.172Z,4.80
2019-03-03T00:38:01.837Z,4.81
2019-03-03T00:40:47.356Z,4.72
2019-03-03T00:43:32.905Z,4.81
2019-03-03T00:46:05.778Z,4.59
2019-03-03T00:48:41.993Z,4.66
2019-03-03T00:51:12.223Z,4.57
2019-03-03T00:53:45.441Z,4.64
2019-03-03T00:56:21.786Z,4.57
2019-03-03T00:59:04.033Z,4.54
2019-03-03T01:01:34.273Z,4.63
2019-03-03T01:04:04.524Z,4.56
2019-03-03T01:06:37.761Z,4.56
2019-03-03T01:09:13.340Z,4.54
2019-03-03T01:11:55.306Z,4.39
2019-03-03T01:14:37.217Z,4.44
2019-03-03T01:17:16.598Z,4.46
2019-03-03T01:20:05.186Z,4.48
2019-03-03T01:22:51.871Z,4.43
2019-03-03T01:25:20.542Z,4.42
2019-03-03T01:27:49.217Z,4.51
2019-03-03T01:30:17.886Z,4.50
2019-03-03T01:32:46.561Z,4.55
2019-03-03T01:35:15.225Z,4.52
2019-03-03T01:37:43.913Z,4.40
2019-03-03T01:40:12.782Z,4.38
2019-03-03T01:42:41.486Z,4.40
2019-03-03T01:45:14.537Z,4.44
2019-03-03T01:47:43.207Z,4.35
2019-03-03T01:50:15.068Z,4.43
2019-03-03T01:52:43.752Z,4.33
2019-03-03T01:55:13.239Z,4.27
2019-03-03T01:57:41.894Z,4.24
2019-03-03T02:00:21.985Z,4.19
2019-03-03T02:02:51.266Z,3.97
2019-03-03T02:05:19.899Z,3.99
2019-03-03T02:07:48.611Z,3.92
2019-03-03T02:10:19.319Z,4.10
2019-03-03T02:12:48.015Z,4.13
2019-03-03T02:15:19.863Z,4.21
2019-03-03T02:17:48.539Z,4.20
2019-03-03T02:20:17.205Z,4.13
2019-03-03T02:22:45.878Z,4.07
2019-03-03T02:25:15.249Z,4.10
2019-03-03T02:27:44.030Z,3.97
2019-03-03T02:30:22.358Z,4.00
2019-03-03T02:32:51.031Z,3.98
2019-03-03T02:35:19.685Z,4.04
2019-03-03T02:37:48.360Z,3.96
2019-03-03T02:40:19.098Z,3.83
2019-03-03T02:42:47.863Z,4.03
2019-03-03T02:45:17.043Z,4.17
2019-03-03T02:47:45.734Z,4.31
2019-03-03T02:50:17.784Z,4.38
2019-03-03T02:52:46.856Z,4.29
2019-03-03T02:55:18.500Z,4.50
2019-03-03T02:57:47.112Z,4.59
2019-03-03T03:00:25.213Z,4.68
2019-03-03T03:02:55.445Z,4.72
2019-03-03T03:05:33.553Z,4.75
2019-03-03T03:08:09.961Z,4.84
2019-03-03T03:10:46.110Z,4.89
2019-03-03T03:13:32.907Z,4.91
2019-03-03T03:16:05.881Z,4.92
2019-03-03T03:18:36.128Z,5.01
2019-03-03T03:21:22.833Z,5.08
2019-03-03T03:23:59.097Z,5.05
2019-03-03T03:26:29.333Z,5.09
2019-03-03T03:29:05.329Z,5.08
2019-03-03T03:31:44.365Z,5.08
2019-03-03T03:34:14.599Z,5.14
2019-03-03T03:36:50.998Z,5.15
2019-03-03T03:39:33.415Z,5.22
2019-03-03T03:42:03.649Z,5.18
2019-03-03T03:44:36.978Z,5.29
2019-03-03T03:47:07.222Z,5.22
2019-03-03T03:49:46.550Z,5.27
2019-03-03T03:52:32.786Z,5.28
2019-03-03T03:55:03.026Z,5.31
2019-03-03T03:57:42.524Z,5.32
2019-03-03T04:00:18.588Z,5.27
2019-03-03T04:02:54.885Z,5.37
2019-03-03T04:05:25.106Z,5.29
2019-03-03T04:08:03.965Z,4.97
2019-03-03T04:10:37.035Z,4.63
2019-03-03T04:13:13.175Z,4.40
2019-03-03T04:15:49.532Z,4.23
2019-03-03T04:18:19.765Z,4.16
2019-03-03T04:20:52.941Z,4.18
2019-03-03T04:23:39.694Z,4.15
2019-03-03T04:26:09.918Z,4.27
2019-03-03T04:28:45.903Z,4.09
2019-03-03T04:31:16.134Z,4.02
2019-03-03T04:33:58.599Z,4.02
2019-03-03T04:39:27.087Z,4.09
2019-03-03T04:41:57.344Z,3.79
2019-03-03T04:44:30.638Z,3.96
2019-03-03T04:47:03.759Z,3.92
2019-03-03T04:49:46.207Z,3.86
2019-03-03T04:52:22.514Z,3.77
2019-03-03T04:55:01.900Z,3.30
2019-03-03T04:57:37.874Z,3.31
2019-03-03T05:00:26.294Z,3.08
2019-03-03T05:03:02.406Z,2.97
2019-03-03T05:05:32.644Z,2.81
2019-03-03T05:08:05.836Z,2.88
2019-03-03T05:10:52.469Z,2.97
2019-03-03T05:13:22.705Z,2.99
2019-03-03T05:15:52.971Z,2.90
2019-03-03T05:18:23.262Z,2.99
2019-03-03T05:20:51.912Z,3.05
2019-03-03T05:23:20.584Z,3.13
2019-03-03T05:25:49.255Z,3.13
2019-03-03T05:28:17.914Z,3.19
2019-03-03T05:30:46.574Z,2.92
2019-03-03T05:33:15.244Z,2.89
2019-03-03T05:35:43.906Z,3.02
2019-03-03T05:38:12.603Z,3.07
2019-03-03T05:40:41.253Z,3.03
2019-03-03T05:43:09.915Z,3.22
2019-03-03T05:45:38.569Z,3.20
2019-03-03T05:48:07.244Z,3.27
2019-03-03T05:50:35.918Z,3.33
2019-03-03T05:53:04.779Z,3.38
2019-03-03T05:55:33.416Z,3.54
2019-03-03T05:58:02.084Z,3.53
2019-03-03T06:00:30.990Z,3.46
2019-03-03T06:02:59.655Z,3.53
2019-03-03T06:05:28.336Z,3.69
2019-03-03T06:07:57.014Z,3.70
2019-03-03T06:10:25.685Z,3.62
2019-03-03T06:12:54.397Z,3.66
2019-03-03T06:15:23.066Z,3.71
2019-03-03T06:17:51.727Z,3.94
2019-03-03T06:20:20.410Z,3.95
2019-03-03T06:22:49.089Z,4.24
2019-03-03T06:25:17.744Z,4.34
2019-03-03T06:27:46.418Z,4.36
2019-03-03T06:30:15.788Z,4.44
2019-03-03T06:32:44.457Z,4.71
2019-03-03T06:35:13.420Z,4.70
2019-03-03T06:37:42.197Z,4.78
2019-03-03T06:40:11.586Z,4.87
2019-03-03T06:42:40.274Z,4.88
2019-03-03T06:45:13.792Z,5.10
2019-03-03T06:47:42.447Z,4.91
2019-03-03T06:50:12.605Z,5.16
2019-03-03T06:52:41.318Z,5.41
2019-03-03T06:55:10.260Z,5.61
2019-03-03T06:57:39.018Z,5.65
2019-03-03T07:00:10.666Z,5.59
2019-03-03T07:02:39.353Z,5.71
2019-03-03T07:05:09.614Z,5.93
2019-03-03T07:07:38.338Z,6.16
2019-03-03T07:10:09.697Z,6.13
2019-03-03T07:12:38.378Z,6.18
2019-03-03T07:15:10.060Z,6.47
2019-03-03T07:17:38.728Z,6.75
2019-03-03T07:20:09.698Z,6.87
2019-03-03T07:22:38.368Z,6.90
2019-03-03T07:25:17.265Z,6.93
2019-03-03T07:27:45.944Z,7.02
2019-03-03T07:30:15.713Z,7.09
2019-03-03T07:32:45.958Z,7.04
2019-03-03T07:35:14.637Z,7.27
2019-03-03T07:37:43.344Z,7.43
2019-03-03T07:40:12.002Z,7.42
2019-03-03T07:42:40.668Z,7.33
2019-03-03T07:45:12.112Z,7.41
2019-03-03T07:47:40.791Z,7.18
2019-03-03T07:50:09.468Z,7.18
2019-03-03T07:52:38.141Z,7.39
2019-03-03T07:55:09.021Z,7.30
2019-03-03T07:57:37.788Z,7.49
2019-03-03T08:00:11.483Z,7.68
2019-03-03T08:02:40.151Z,7.77
2019-03-03T08:05:09.924Z,7.69
2019-03-03T08:07:38.604Z,7.50
2019-03-03T08:10:17.438Z,7.51
2019-03-03T08:12:46.123Z,7.41
2019-03-03T08:15:19.009Z,7.36
2019-03-03T08:17:47.671Z,7.44
2019-03-03T08:20:16.432Z,7.59
2019-03-03T08:22:45.122Z,7.40
2019-03-03T08:25:14.116Z,7.66
2019-03-03T08:27:42.789Z,7.62
2019-03-03T08:30:13.618Z,7.63
2019-03-03T08:32:42.308Z,7.65
2019-03-03T08:35:13.821Z,7.85
2019-03-03T08:37:42.555Z,7.79
2019-03-03T08:40:11.648Z,7.83
2019-03-03T08:42:56.957Z,8.11
2019-03-03T08:45:27.304Z,8.14
2019-03-03T08:48:03.638Z,8.09
2019-03-03T08:50:33.854Z,8.13
2019-03-03T08:53:06.886Z,8.00
2019-03-03T08:55:42.881Z,8.28
2019-03-03T08:58:28.107Z,8.74
2019-03-03T09:00:58.337Z,9.09
2019-03-03T09:03:44.845Z,9.00
2019-03-03T09:06:31.289Z,9.03
2019-03-03T09:09:10.226Z,9.33
2019-03-03T09:11:40.475Z,9.35
2019-03-03T09:14:25.927Z,9.08
2019-03-03T09:16:56.163Z,9.00
2019-03-03T09:19:26.414Z,9.23
2019-03-03T09:21:56.639Z,9.48
2019-03-03T09:24:26.886Z,9.70
2019-03-03T09:27:09.323Z,9.84
2019-03-03T09:29:57.565Z,9.77
2019-03-03T09:32:39.511Z,9.51
2019-03-03T09:35:18.719Z,9.38
2019-03-03T09:37:48.978Z,9.79
2019-03-03T09:40:24.846Z,9.49
2019-03-03T09:42:57.958Z,9.41
2019-03-03T09:45:33.966Z,9.23
2019-03-03T09:48:06.960Z,9.65
2019-03-03T09:50:43.285Z,10.17
2019-03-03T09:53:25.437Z,10.28
2019-03-03T09:56:11.984Z,10.62
2019-03-03T09:58:58.240Z,11.12
2019-03-03T10:01:31.035Z,11.32
2019-03-03T10:04:17.392Z,11.65
2019-03-03T10:07:04.232Z,11.33
2019-03-03T10:09:52.478Z,11.51
2019-03-03T10:12:38.947Z,11.70
2019-03-03T10:15:14.493Z,11.84
2019-03-03T10:17:51.004Z,12.22
2019-03-03T10:20:27.538Z,12.38
2019-03-03T10:23:14.415Z,11.87
2019-03-03T10:25:59.707Z,12.45
2019-03-03T10:28:38.650Z,11.14
2019-03-03T10:31:14.784Z,11.61
2019-03-03T10:34:01.184Z,11.61
2019-03-03T10:36:37.451Z,11.36
2019-03-03T10:39:10.138Z,11.20
2019-03-03T10:41:49.283Z,11.54
2019-03-03T10:44:34.388Z,11.44
2019-03-03T10:47:07.210Z,11.93
2019-03-03T10:49:40.248Z,13.23
2019-03-03T10:52:10.508Z,12.54
2019-03-03T10:54:40.777Z,11.99
2019-03-03T10:57:17.068Z,11.57
2019-03-03T11:00:03.478Z,11.34
2019-03-03T11:02:33.815Z,10.47
2019-03-03T11:05:19.419Z,10.31
2019-03-03T11:07:52.645Z,10.04
2019-03-03T11:10:25.630Z,9.70
2019-03-03T11:13:04.914Z,9.35
2019-03-03T11:15:35.161Z,8.99
2019-03-03T11:18:08.263Z,8.81
2019-03-03T11:20:47.641Z,8.72
2019-03-03T11:23:34.245Z,8.58
2019-03-03T11:26:07.258Z,8.50
2019-03-03T11:28:37.495Z,8.70
2019-03-03T11:31:16.754Z,8.79
2019-03-03T11:33:50.104Z,8.69
2019-03-03T11:36:23.496Z,8.85
2019-03-03T11:38:56.803Z,8.83
2019-03-03T11:41:39.329Z,9.00
2019-03-03T11:44:12.567Z,8.87
2019-03-03T11:46:45.728Z,9.06
2019-03-03T11:49:16.046Z,9.15
2019-03-03T11:51:49.133Z,9.28
2019-03-03T11:54:19.363Z,9.18
2019-03-03T11:56:49.601Z,9.17
2019-03-03T11:59:25.974Z,9.47
2019-03-03T12:01:59.304Z,9.83
2019-03-03T12:04:29.644Z,10.01
2019-03-03T12:07:02.615Z,9.92
2019-03-03T12:09:35.605Z,9.92
2019-03-03T12:12:05.950Z,9.79
2019-03-03T12:14:36.200Z,9.73
2019-03-03T12:17:06.524Z,9.65
2019-03-03T12:19:52.038Z,9.74
2019-03-03T12:22:22.329Z,9.86
2019-03-03T12:25:04.466Z,9.58
2019-03-03T12:27:51.108Z,9.56
2019-03-03T12:30:21.402Z,9.68
2019-03-03T12:33:03.882Z,9.72
2019-03-03T12:35:42.898Z,9.52
2019-03-03T12:38:29.307Z,9.43
2019-03-03T12:41:15.879Z,9.36
2019-03-03T12:43:46.125Z,9.72
2019-03-03T12:46:16.415Z,10.13
2019-03-03T12:48:46.654Z,10.62
2019-03-03T12:51:16.938Z,10.80
2019-03-03T12:53:53.165Z,11.28
2019-03-03T12:56:32.204Z,11.46
2019-03-03T12:59:11.477Z,11.60
2019-03-03T13:01:57.964Z,12.36
2019-03-03T13:04:31.196Z,13.80
2019-03-03T13:07:07.412Z,15.62
2019-03-03T13:09:37.662Z,16.91
2019-03-03T13:12:07.903Z,17.97
2019-03-03T13:14:43.874Z,18.78
2019-03-03T13:17:14.112Z,17.60
2019-03-03T13:19:44.346Z,19.59
2019-03-03T13:22:29.898Z,19.21
2019-03-03T13:25:09.050Z,17.68
2019-03-03T13:27:45.304Z,16.50
2019-03-03T13:30:25.063Z,16.37
2019-03-03T13:32:58.542Z,15.80
2019-03-03T13:35:31.724Z,14.60
2019-03-03T13:38:14.116Z,15.27
2019-03-03T13:41:00.652Z,16.65
2019-03-03T13:43:29.330Z,19.74
2019-03-03T13:45:58.118Z,17.58
2019-03-03T13:48:26.791Z,16.43
2019-03-03T13:50:55.459Z,15.98
2019-03-03T13:53:24.160Z,17.04
2019-03-03T13:55:52.833Z,14.86
2019-03-03T13:58:21.498Z,13.59
2019-03-03T14:00:50.159Z,13.58
2019-03-03T14:03:18.877Z,12.46
2019-03-03T14:05:47.558Z,12.30
2019-03-03T14:08:16.223Z,12.21
2019-03-03T14:10:44.893Z,11.88
2019-03-03T14:13:13.561Z,11.35
2019-03-03T14:15:42.226Z,11.00
2019-03-03T14:18:10.910Z,9.88
2019-03-03T14:20:39.559Z,10.78
2019-03-03T14:23:08.330Z,10.78
2019-03-03T14:25:37.000Z,10.70
2019-03-03T14:28:05.786Z,10.74
2019-03-03T14:30:34.491Z,10.67
2019-03-03T14:33:03.156Z,10.63
2019-03-03T14:35:31.873Z,10.55
2019-03-03T14:38:00.566Z,10.60
2019-03-03T14:40:29.222Z,10.61
2019-03-03T14:42:57.915Z,10.65
2019-03-03T14:45:27.192Z,10.49
2019-03-03T14:47:55.856Z,10.40
2019-03-03T14:50:24.740Z,10.30
2019-03-03T14:52:55.216Z,10.27
2019-03-03T14:55:24.034Z,10.06
2019-03-03T14:57:52.693Z,9.95
2019-03-03T15:00:24.370Z,9.83
2019-03-03T15:02:54.805Z,9.56
2019-03-03T15:05:23.458Z,9.45
2019-03-03T15:07:52.127Z,9.26
2019-03-03T15:10:21.094Z,9.31
2019-03-03T15:12:49.756Z,9.18
2019-03-03T15:15:21.282Z,9.21
2019-03-03T15:17:49.927Z,9.18
2019-03-03T15:20:18.695Z,9.13
2019-03-03T15:22:47.355Z,9.07
2019-03-03T15:25:16.425Z,9.07
2019-03-03T15:27:45.199Z,8.97
2019-03-03T15:30:16.771Z,8.91
2019-03-03T15:32:45.531Z,8.91
2019-03-03T15:35:14.300Z,8.90
2019-03-03T15:37:42.979Z,8.84
2019-03-03T15:40:28.807Z,8.80
2019-03-03T15:42:57.494Z,8.83
2019-03-03T15:45:29.872Z,8.71
2019-03-03T15:47:58.526Z,8.73
2019-03-03T15:50:27.377Z,8.74
2019-03-03T15:52:56.037Z,8.64
2019-03-03T15:55:29.380Z,8.56
2019-03-03T15:57:58.041Z,8.52
2019-03-03T16:00:35.662Z,8.46
2019-03-03T16:03:04.671Z,8.27
2019-03-03T16:05:33.332Z,8.38
2019-03-03T16:08:02.158Z,8.31
2019-03-03T16:10:30.843Z,8.33
2019-03-03T16:12:59.507Z,8.27
2019-03-03T16:15:28.274Z,8.23
2019-03-03T16:17:56.947Z,8.16
2019-03-03T16:20:25.711Z,8.08
2019-03-03T16:22:54.380Z,8.11
2019-03-03T16:25:24.044Z,8.08
2019-03-03T16:27:53.015Z,8.06
2019-03-03T16:30:23.655Z,8.01
2019-03-03T16:32:52.335Z,7.96
2019-03-03T16:35:21.019Z,7.95
2019-03-03T16:37:49.721Z,7.93
2019-03-03T16:40:22.579Z,7.92
2019-03-03T16:42:51.284Z,7.96
2019-03-03T16:45:20.075Z,8.01
2019-03-03T16:47:48.866Z,7.95
2019-03-03T16:50:19.966Z,7.92
2019-03-03T16:52:49.132Z,7.78
2019-03-03T16:55:18.996Z,7.77
2019-03-03T16:57:47.650Z,7.75
2019-03-03T17:00:24.439Z,7.81
2019-03-03T17:02:53.187Z,7.79
2019-03-03T17:05:24.783Z,7.82
2019-03-03T17:07:53.451Z,7.83
2019-03-03T17:10:22.121Z,7.81
2019-03-03T17:12:50.939Z,7.82
2019-03-03T17:15:24.353Z,7.80
2019-03-03T17:17:53.009Z,7.78
2019-03-03T17:20:21.666Z,7.78
2019-03-03T17:22:50.334Z,7.81
2019-03-03T17:25:21.463Z,7.84
2019-03-03T17:27:50.136Z,7.86
2019-03-03T17:30:28.002Z,7.86
2019-03-03T17:32:56.864Z,7.85
2019-03-03T17:35:25.623Z,7.82
2019-03-03T17:37:56.542Z,7.71
2019-03-03T17:40:29.155Z,7.82
2019-03-03T17:42:57.828Z,7.84
2019-03-03T17:45:26.710Z,7.82
2019-03-03T17:47:55.358Z,7.68
2019-03-03T17:50:26.943Z,7.85
2019-03-03T17:52:55.609Z,7.84
2019-03-03T17:55:24.393Z,7.84
2019-03-03T17:57:53.154Z,7.80
2019-03-03T18:00:33.691Z,7.81
2019-03-03T18:03:02.346Z,7.82
2019-03-03T18:05:31.011Z,7.77
2019-03-03T18:07:59.722Z,7.83
2019-03-03T18:10:28.421Z,7.81
2019-03-03T18:12:57.134Z,7.85
2019-03-03T18:15:25.757Z,7.82
2019-03-03T18:17:54.443Z,7.89
2019-03-03T18:20:23.123Z,7.88
2019-03-03T18:22:51.954Z,7.85
2019-03-03T18:25:21.617Z,7.83
2019-03-03T18:27:50.318Z,7.80
2019-03-03T18:30:29.190Z,7.80
2019-03-03T18:32:57.854Z,7.73
2019-03-03T18:35:26.518Z,7.63
2019-03-03T18:37:55.178Z,7.58
2019-03-03T18:40:24.957Z,7.57
2019-03-03T18:42:54.154Z,7.56
2019-03-03T18:45:23.634Z,7.58
2019-03-03T18:47:52.401Z,7.53
2019-03-03T18:50:26.426Z,7.51
2019-03-03T18:52:55.095Z,7.43
2019-03-03T18:55:23.802Z,7.37
2019-03-03T18:57:52.558Z,7.35
2019-03-03T19:00:23.774Z,7.29
2019-03-03T19:02:52.532Z,7.19
2019-03-03T19:05:21.201Z,7.09
2019-03-03T19:07:49.864Z,6.99
2019-03-03T19:10:27.026Z,6.92
2019-03-03T19:12:55.683Z,6.87
2019-03-03T19:15:24.446Z,6.88
2019-03-03T19:17:53.120Z,6.86
2019-03-03T19:20:22.397Z,6.80
2019-03-03T19:22:51.510Z,6.56
2019-03-03T19:25:20.368Z,6.72
2019-03-03T19:27:49.037Z,6.71
2019-03-03T19:30:23.160Z,6.73
2019-03-03T19:32:58.052Z,6.71
2019-03-03T19:35:26.759Z,6.70
2019-03-03T19:37:55.434Z,6.70
2019-03-03T19:40:24.503Z,6.74
2019-03-03T19:42:53.197Z,6.68
2019-03-03T19:45:27.944Z,6.70
2019-03-03T19:47:56.814Z,6.76
2019-03-03T19:50:25.558Z,6.81
2019-03-03T19:52:54.329Z,6.75
2019-03-03T19:55:23.331Z,6.99
2019-03-03T19:57:52.032Z,7.07
2019-03-03T20:00:35.633Z,7.10
2019-03-03T20:02:59.397Z,7.04
2019-03-03T20:05:28.066Z,7.12
2019-03-03T20:07:56.739Z,7.14
2019-03-03T20:10:25.513Z,7.14
2019-03-03T20:12:54.183Z,7.15
2019-03-03T20:15:23.346Z,7.17
2019-03-03T20:17:52.029Z,7.23
2019-03-03T20:20:21.804Z,7.22
2019-03-03T20:22:50.562Z,7.21
2019-03-03T20:25:19.327Z,7.20
2019-03-03T20:27:48.112Z,7.21
2019-03-03T20:30:19.282Z,7.15
2019-03-03T20:32:48.113Z,7.15
2019-03-03T20:35:16.904Z,7.11
2019-03-03T20:37:46.674Z,7.09
2019-03-03T20:40:20.265Z,7.05
2019-03-03T20:42:48.951Z,6.92
2019-03-03T20:45:20.648Z,6.89
2019-03-03T20:47:49.286Z,6.86
2019-03-03T20:50:19.659Z,6.88
2019-03-03T20:52:49.034Z,6.91
2019-03-03T20:55:25.598Z,6.97
2019-03-03T20:57:54.278Z,6.94
2019-03-03T21:00:25.418Z,6.96
2019-03-03T21:02:54.145Z,6.91
2019-03-03T21:05:22.822Z,6.93
2019-03-03T21:07:52.267Z,6.96
2019-03-03T21:10:32.116Z,6.99
2019-03-03T21:13:00.980Z,7.04
2019-03-03T21:15:29.642Z,7.09
2019-03-03T21:17:58.311Z,7.14
2019-03-03T21:20:27.149Z,7.25
2019-03-03T21:22:55.886Z,7.30
2019-03-03T21:25:24.493Z,7.30
2019-03-03T21:27:53.166Z,7.36
2019-03-03T21:30:23.351Z,7.36
2019-03-03T21:32:52.520Z,7.26
2019-03-03T21:35:21.773Z,7.23
2019-03-03T21:37:50.545Z,7.16
2019-03-03T21:40:23.765Z,7.06
2019-03-03T21:42:52.525Z,7.00
2019-03-03T21:45:28.222Z,7.02
2019-03-03T21:47:57.266Z,6.98
2019-03-03T21:50:31.039Z,7.01
2019-03-03T21:52:59.709Z,7.00
2019-03-03T21:55:28.470Z,7.05
2019-03-03T21:57:57.152Z,7.07
2019-03-03T22:00:31.129Z,7.00
2019-03-03T22:02:59.823Z,6.90
2019-03-03T22:05:28.598Z,6.62
2019-03-03T22:07:57.302Z,6.34
2019-03-03T22:10:33.009Z,6.24
2019-03-03T22:13:03.381Z,6.15
2019-03-03T22:15:32.062Z,6.27
2019-03-03T22:18:00.733Z,6.21
2019-03-03T22:20:29.494Z,6.28
2019-03-03T22:22:58.166Z,6.33
2019-03-03T22:25:26.847Z,6.27
2019-03-03T22:27:55.531Z,6.18
2019-03-03T22:30:24.241Z,6.13
2019-03-03T22:32:52.960Z,6.05
2019-03-03T22:35:21.629Z,6.03
2019-03-03T22:37:51.159Z,6.02
2019-03-03T22:40:22.771Z,5.83
2019-03-03T22:42:51.497Z,5.86
2019-03-03T22:45:20.564Z,5.78
2019-03-03T22:47:49.275Z,5.87
2019-03-03T22:50:19.247Z,5.77
2019-03-03T22:52:47.928Z,5.79
2019-03-03T22:55:18.602Z,5.77
2019-03-03T22:57:47.268Z,5.77
2019-03-03T23:00:44.678Z,5.71
2019-03-03T23:03:16.858Z,5.59
2019-03-03T23:05:54.065Z,5.43
2019-03-03T23:08:28.282Z,5.44
2019-03-03T23:11:05.445Z,5.37
2019-03-03T23:13:37.023Z,5.23
2019-03-03T23:16:14.492Z,5.12
2019-03-03T23:19:08.719Z,5.02
2019-03-03T23:21:55.028Z,4.93
2019-03-03T23:24:26.663Z,4.71
2019-03-03T23:26:55.337Z,4.66
2019-03-03T23:29:24.014Z,4.44
2019-03-03T23:31:52.679Z,4.38
2019-03-03T23:34:21.356Z,4.44
2019-03-03T23:36:50.129Z,4.40
2019-03-03T23:39:18.844Z,4.47
2019-03-03T23:41:47.523Z,4.29
2019-03-03T23:44:17.193Z,4.20
2019-03-03T23:46:45.899Z,4.01
2019-03-03T23:49:15.336Z,3.91
2019-03-03T23:51:44.016Z,3.87
2019-03-03T23:54:12.682Z,3.75
2019-03-03T23:56:41.395Z,3.69
2019-03-03T23:59:10.106Z,3.58
